Time;durP1;ratioP1;P1;durP2;ratioP2;P2;SDS_P1;SDS_P2;PMS_P1;PMS_P2;Temp;Humidity;BMP_temperature;BMP_pressure;BME280_temperature;BME280_humidity;BME280_pressure;Samples;Min_cycle;Max_cycle;Signal;HPM_P1;HPM_P2
2024/03/25 00:01:38;;;;;;;5.90;2.33;;;7.00;61.70;;;2.11;100.00;94964.56;4951832;28;20429;-53
2024/03/25 00:04:04;;;;;;;4.55;2.15;;;7.00;61.70;;;2.11;100.00;94966.41;4950535;28;20015;-50
2024/03/25 00:06:33;;;;;;;6.57;2.20;;;7.00;61.70;;;2.05;100.00;94966.25;4946158;28;20022;-48
2024/03/25 00:09:01;;;;;;;7.40;2.03;;;7.00;61.70;;;2.03;100.00;94959.63;4952267;28;20042;-51
2024/03/25 00:11:27;;;;;;;6.43;2.30;;;7.00;61.80;;;2.03;100.00;94960.44;4947936;28;20493;-51
2024/03/25 00:13:53;;;;;;;6.45;2.05;;;7.00;61.80;;;2.03;100.00;94957.78;4952337;28;20027;-53
2024/03/25 00:16:19;;;;;;;7.30;2.15;;;6.90;61.80;;;2.03;100.00;94957.78;4952153;28;20034;-51
2024/03/25 00:18:44;;;;;;;10.68;2.40;;;6.90;61.80;;;2.02;100.00;94948.31;4951440;28;20512;-50
2024/03/25 00:21:10;;;;;;;8.02;2.70;;;6.90;61.80;;;2.01;100.00;94951.19;4950171;28;20370;-49
2024/03/25 00:23:36;;;;;;;56.10;4.55;;;6.90;61.80;;;1.98;100.00;94947.19;4952060;28;20545;-48
2024/03/25 00:26:02;;;;;;;10.63;2.60;;;6.90;61.80;;;1.95;100.00;94942.38;4947935;28;20077;-47
2024/03/25 00:28:27;;;;;;;10.65;2.78;;;6.90;61.80;;;1.91;100.00;94938.59;4946348;28;20035;-47
2024/03/25 00:30:53;;;;;;;8.65;2.70;;;6.90;61.70;;;1.83;100.00;94933.69;4947696;28;20383;-51
2024/03/25 00:33:20;;;;;;;10.35;2.65;;;6.80;61.70;;;1.76;100.00;94935.59;4950625;28;20104;-54
2024/03/25 00:35:46;;;;;;;7.97;2.80;;;6.70;61.60;;;1.67;100.00;94936.97;4945009;28;20031;-53
2024/03/25 00:38:13;;;;;;;7.72;2.45;;;6.70;61.60;;;1.56;100.00;94928.81;4951461;28;20114;-51
2024/03/25 00:40:39;;;;;;;5.90;2.45;;;6.60;61.60;;;1.51;100.00;94926.06;4951710;28;20393;-52
2024/03/25 00:43:04;;;;;;;8.38;2.50;;;6.50;61.50;;;1.42;100.00;94924.78;4973049;23;20050;-50
2024/03/25 00:45:30;;;;;;;9.35;2.75;;;6.50;61.60;;;1.37;100.00;94922.81;4972700;28;20049;-51
2024/03/25 00:47:59;;;;;;;6.35;2.60;;;6.40;61.60;;;1.28;100.00;94926.75;4971875;28;20033;-50
2024/03/25 00:50:26;;;;;;;9.93;2.78;;;6.30;61.60;;;1.22;100.00;94926.84;4970900;28;20026;-50
2024/03/25 00:52:52;;;;;;;8.98;3.28;;;6.30;61.70;;;1.17;100.00;94926.72;4973372;28;20021;-49
2024/03/25 00:55:19;;;;;;;9.85;2.80;;;6.10;61.70;;;1.14;100.00;94923.53;4973191;28;20468;-50
2024/03/25 00:57:45;;;;;;;11.60;2.92;;;6.10;61.80;;;1.06;100.00;94915.94;4974495;28;20476;-51
2024/03/25 01:00:12;;;;;;;31.38;3.95;;;6.00;61.80;;;1.00;100.00;94913.41;4971698;28;20080;-51
2024/03/25 01:02:37;;;;;;;8.75;2.97;;;6.00;61.90;;;0.92;100.00;94912.69;4973473;28;20091;-53
2024/03/25 01:05:05;;;;;;;11.07;3.10;;;5.90;61.80;;;0.85;100.00;94911.19;4971670;28;20436;-50
2024/03/25 01:07:31;;;;;;;9.45;3.28;;;5.80;61.90;;;0.75;100.00;94909.06;4973878;28;20030;-53
2024/03/25 01:09:58;;;;;;;8.07;3.25;;;5.80;62.00;;;0.74;100.00;94904.03;4972468;28;20030;-50
2024/03/25 01:12:25;;;;;;;14.20;3.30;;;5.70;62.00;;;0.68;100.00;94910.97;4969796;28;20108;-53
2024/03/25 01:14:52;;;;;;;8.63;2.95;;;5.60;62.00;;;0.60;100.00;94906.03;4970886;28;20022;-53
2024/03/25 01:17:18;;;;;;;7.43;2.75;;;5.60;62.10;;;0.54;100.00;94899.81;4973874;28;20041;-49
2024/03/25 01:19:45;;;;;;;9.82;3.40;;;5.50;62.20;;;0.48;100.00;94903.31;4967500;28;20172;-50
2024/03/25 01:22:11;;;;;;;9.07;3.08;;;5.40;62.20;;;0.41;100.00;94902.59;4974411;28;20029;-49
2024/03/25 01:24:36;;;;;;;16.35;3.60;;;5.40;62.30;;;0.36;100.00;94895.38;4971660;28;20014;-50
2024/03/25 01:27:03;;;;;;;6.50;2.92;;;5.30;62.30;;;0.32;100.00;94898.66;4969885;28;20026;-50
2024/03/25 01:29:29;;;;;;;7.38;2.88;;;5.30;62.40;;;0.26;100.00;94892.47;4972555;28;20036;-49
2024/03/25 01:31:55;;;;;;;8.95;3.65;;;5.20;62.50;;;0.22;100.00;94894.72;4969153;28;20066;-50
2024/03/25 01:34:21;;;;;;;11.27;3.45;;;5.20;62.60;;;0.19;100.00;94891.72;4972315;28;20034;-52
2024/03/25 01:36:46;;;;;;;13.25;3.22;;;5.10;62.60;;;0.13;100.00;94892.59;4970604;28;20022;-49
2024/03/25 01:39:13;;;;;;;7.13;2.75;;;5.10;62.70;;;0.11;100.00;94892.78;4970567;28;20038;-49
2024/03/25 01:41:39;;;;;;;9.95;3.30;;;5.10;62.80;;;0.08;100.00;94884.56;4975391;28;20396;-50
2024/03/25 01:44:05;;;;;;;9.40;3.45;;;5.00;62.90;;;0.09;100.00;94881.72;4965254;28;20042;-52
2024/03/25 01:46:31;;;;;;;11.35;3.60;;;5.00;62.90;;;0.12;100.00;94883.91;4976649;28;20025;-50
2024/03/25 01:48:58;;;;;;;7.82;3.10;;;5.00;63.00;;;0.10;100.00;94874.69;4972713;28;20030;-53
2024/03/25 01:51:25;;;;;;;13.45;3.70;;;5.00;63.10;;;0.03;100.00;94872.09;4978552;28;20392;-50
2024/03/25 01:53:56;;;;;;;10.50;3.97;;;5.00;63.20;;;0.03;100.00;94879.97;4974281;28;20029;-51
2024/03/25 01:56:24;;;;;;;8.50;3.65;;;4.90;63.20;;;0.01;100.00;94868.13;4979464;28;20026;-55
2024/03/25 01:58:51;;;;;;;5.57;3.17;;;4.90;63.20;;;0.04;100.00;94870.31;4975980;28;20113;-54
2024/03/25 02:01:19;;;;;;;13.05;3.92;;;4.90;63.30;;;0.15;100.00;94864.34;4977090;28;20030;-53
2024/03/25 02:03:46;;;;;;;6.35;3.55;;;5.00;64.50;;;0.21;100.00;94855.63;4977145;28;20511;-55
2024/03/25 02:06:18;;;;;;;7.55;3.42;;;5.00;63.80;;;0.17;100.00;94863.13;4974275;28;20027;-51
2024/03/25 02:08:45;;;;;;;7.82;2.97;;;5.00;63.80;;;0.13;100.00;94861.16;4972696;28;20068;-56
2024/03/25 02:11:12;;;;;;;9.55;3.40;;;5.00;63.70;;;0.12;100.00;94862.97;4977952;28;20531;-55
2024/03/25 02:13:39;;;;;;;11.63;3.00;;;5.00;63.80;;;0.10;100.00;94861.59;4972189;28;20061;-54
2024/03/25 02:16:06;;;;;;;8.60;3.65;;;5.00;63.80;;;0.13;100.00;94854.09;4977438;28;20049;-54
2024/03/25 02:18:32;;;;;;;8.73;3.70;;;5.00;64.00;;;0.18;100.00;94866.53;4974283;28;20511;-56
2024/03/25 02:21:00;;;;;;;14.13;3.38;;;5.00;64.10;;;0.16;100.00;94858.91;4979024;28;20066;-53
2024/03/25 02:23:29;;;;;;;8.65;3.05;;;5.10;64.10;;;0.10;100.00;94857.16;4975348;28;20026;-55
2024/03/25 02:25:55;;;;;;;17.27;3.80;;;5.10;64.10;;;0.17;100.00;94857.09;4973347;28;20025;-56
2024/03/25 02:28:21;;;;;;;7.82;3.05;;;5.10;64.00;;;0.20;100.00;94860.06;4974963;28;20594;-55
2024/03/25 02:30:47;;;;;;;9.45;3.22;;;5.10;64.10;;;0.24;100.00;94852.56;4975287;28;20080;-50
2024/03/25 02:33:14;;;;;;;9.05;3.53;;;5.10;64.10;;;0.26;100.00;94855.00;4974290;28;20033;-51
2024/03/25 02:35:43;;;;;;;9.65;3.17;;;5.10;64.20;;;0.24;100.00;94855.19;4978352;28;20018;-53
2024/03/25 02:38:10;;;;;;;7.20;3.17;;;5.10;64.20;;;0.26;100.00;94849.75;4972301;28;20060;-52
2024/03/25 02:40:37;;;;;;;13.15;3.30;;;5.10;64.20;;;0.26;100.00;94847.13;4974391;28;20451;-51
2024/03/25 02:43:04;;;;;;;5.72;3.00;;;5.10;64.20;;;0.21;100.00;94848.56;4978639;28;20180;-54
2024/03/25 02:45:30;;;;;;;12.68;3.25;;;5.10;64.10;;;0.20;100.00;94840.94;4970964;28;20376;-52
2024/03/25 02:47:56;;;;;;;7.72;3.20;;;5.10;64.20;;;0.19;100.00;94842.75;4971939;28;20030;-56
2024/03/25 02:50:21;;;;;;;7.78;3.33;;;5.10;64.10;;;0.18;100.00;94832.47;4970374;28;20032;-52
2024/03/25 02:52:47;;;;;;;14.55;3.72;;;5.10;64.10;;;0.17;100.00;94836.94;4975480;28;20428;-52
2024/03/25 02:55:13;;;;;;;10.95;3.65;;;5.20;64.20;;;0.16;100.00;94831.91;4977058;28;20481;-49
2024/03/25 02:57:39;;;;;;;12.43;4.15;;;5.10;64.20;;;0.19;100.00;94834.91;4977309;28;20424;-56
2024/03/25 03:00:08;;;;;;;15.02;4.10;;;5.20;64.30;;;0.20;100.00;94833.88;4973017;28;20030;-54
2024/03/25 03:02:34;;;;;;;7.90;3.72;;;5.20;64.40;;;0.22;100.00;94829.22;4976747;28;20033;-52
2024/03/25 03:05:00;;;;;;;10.82;3.55;;;5.20;64.40;;;0.25;100.00;94830.59;4973961;28;20388;-53
2024/03/25 03:07:26;;;;;;;13.07;3.60;;;5.30;64.40;;;0.28;100.00;94831.97;4975481;28;20022;-54
2024/03/25 03:09:52;;;;;;;11.73;4.10;;;5.30;64.40;;;0.31;100.00;94829.72;4976347;28;20033;-51
2024/03/25 03:12:18;;;;;;;9.07;3.58;;;5.30;64.40;;;0.32;100.00;94823.47;4973976;28;20567;-54
2024/03/25 03:14:43;;;;;;;8.75;3.53;;;5.40;64.40;;;0.34;100.00;94825.88;4973453;28;20493;-55
2024/03/25 03:17:09;;;;;;;8.88;3.67;;;5.40;64.50;;;0.39;100.00;94824.19;4977541;28;20040;-52
2024/03/25 03:19:35;;;;;;;9.70;4.30;;;5.40;64.50;;;0.43;100.00;94822.72;4972290;28;20022;-52
2024/03/25 03:22:00;;;;;;;7.28;4.18;;;5.50;64.50;;;0.48;100.00;94824.69;4977462;28;20026;-54
2024/03/25 03:24:26;;;;;;;12.05;4.65;;;5.50;64.60;;;0.48;100.00;94827.31;4967650;28;20508;-51
2024/03/25 03:26:52;;;;;;;12.07;4.60;;;5.50;64.60;;;0.52;100.00;94830.31;4962060;28;20417;-50
2024/03/25 03:29:18;;;;;;;11.23;4.60;;;5.50;64.60;;;0.55;100.00;94817.56;4975555;28;20034;-51
2024/03/25 03:31:44;;;;;;;9.93;4.63;;;5.60;64.70;;;0.58;100.00;94819.72;4974877;28;20038;-51
2024/03/25 03:34:10;;;;;;;7.63;4.10;;;5.60;64.70;;;0.61;100.00;94821.13;4972168;28;20441;-54
2024/03/25 03:36:35;;;;;;;9.20;4.40;;;5.60;64.60;;;0.63;100.00;94819.88;4970247;28;20060;-55
2024/03/25 03:39:03;;;;;;;9.70;4.28;;;5.70;64.70;;;0.64;100.00;94815.44;4971681;28;20026;-52
2024/03/25 03:41:29;;;;;;;8.77;4.40;;;5.70;64.70;;;0.66;100.00;94811.56;4976526;28;20377;-54
2024/03/25 03:43:55;;;;;;;10.20;4.63;;;5.70;64.70;;;0.70;100.00;94811.94;4970456;28;20040;-50
2024/03/25 03:46:20;;;;;;;15.60;4.47;;;5.80;64.70;;;0.73;100.00;94813.31;4976345;28;20049;-54
2024/03/25 03:48:46;;;;;;;13.50;4.93;;;5.80;64.70;;;0.76;100.00;94812.88;4973249;28;20069;-52
2024/03/25 03:51:12;;;;;;;20.80;5.20;;;5.80;64.70;;;0.79;100.00;94815.06;4970033;28;20046;-50
2024/03/25 03:53:38;;;;;;;12.82;4.30;;;5.90;64.90;;;0.84;100.00;94809.94;4973046;28;20037;-50
2024/03/25 03:56:05;;;;;;;59.80;6.85;;;5.90;64.90;;;0.84;100.00;94808.09;4972942;28;20421;-52
2024/03/25 03:58:32;;;;;;;10.95;4.68;;;5.90;64.90;;;0.89;100.00;94810.06;4971030;28;20037;-50
2024/03/25 04:01:00;;;;;;;8.35;4.28;;;5.90;64.90;;;0.91;100.00;94808.81;4969844;28;20030;-52
2024/03/25 04:03:26;;;;;;;9.20;4.80;;;5.90;64.90;;;0.93;100.00;94808.59;4975640;28;20080;-56
2024/03/25 04:05:52;;;;;;;16.98;5.03;;;6.00;65.00;;;0.95;100.00;94809.19;4972953;28;20021;-51
2024/03/25 04:08:18;;;;;;;14.63;5.18;;;6.00;65.00;;;0.97;100.00;94799.25;4973230;28;20040;-52
2024/03/25 04:10:45;;;;;;;13.48;5.07;;;6.00;65.00;;;0.99;100.00;94794.59;4972281;28;20049;-51
2024/03/25 04:13:12;;;;;;;9.85;5.30;;;6.00;65.00;;;0.99;100.00;94799.03;4970414;28;20428;-52
2024/03/25 04:15:42;;;;;;;13.55;5.40;;;6.00;65.10;;;0.99;100.00;94793.78;4976010;28;20468;-53
2024/03/25 04:18:08;;;;;;;14.60;5.13;;;6.00;65.10;;;1.02;100.00;94796.75;4970192;28;20429;-52
2024/03/25 04:20:42;;;;;;;13.75;5.65;;;6.00;65.10;;;1.03;100.00;94787.88;4978046;28;20437;-51
2024/03/25 04:23:08;;;;;;;14.07;5.57;;;6.10;65.30;;;1.04;100.00;94788.69;4969713;28;20120;-55
2024/03/25 04:25:37;;;;;;;14.95;6.18;;;6.10;65.20;;;1.07;100.00;94788.25;4973896;28;20022;-51
2024/03/25 04:28:07;;;;;;;15.23;5.72;;;6.10;65.20;;;1.08;100.00;94792.44;4971780;28;20037;-50
2024/03/25 04:30:33;;;;;;;15.32;5.88;;;6.10;65.20;;;1.09;100.00;94784.34;4966698;28;20032;-50
2024/03/25 04:33:00;;;;;;;13.30;5.68;;;6.10;65.20;;;1.12;100.00;94785.72;4971279;28;20030;-52
2024/03/25 04:35:26;;;;;;;12.98;5.50;;;6.10;65.30;;;1.12;100.00;94785.72;4971353;28;20018;-52
2024/03/25 04:37:52;;;;;;;15.45;5.82;;;6.10;65.20;;;1.07;100.00;94781.16;4970058;28;20026;-53
2024/03/25 04:40:20;;;;;;;12.80;5.72;;;6.10;65.20;;;1.08;100.00;94782.75;4971449;28;20392;-52
2024/03/25 04:42:46;;;;;;;15.70;5.18;;;6.20;65.20;;;1.06;100.00;94781.38;4975069;28;20408;-50
2024/03/25 04:45:13;;;;;;;12.48;5.32;;;6.20;65.20;;;1.09;100.00;94784.34;4970425;28;20029;-51
2024/03/25 04:47:39;;;;;;;13.27;5.93;;;6.20;65.20;;;1.06;100.00;94782.16;4969633;28;20045;-50
2024/03/25 04:50:07;;;;;;;14.40;5.43;;;6.20;65.20;;;1.06;100.00;94782.16;4973026;28;20368;-52
2024/03/25 04:52:33;;;;;;;11.98;6.05;;;6.10;65.20;;;1.07;100.00;94778.53;4970912;28;20022;-54
2024/03/25 04:54:59;;;;;;;13.70;5.78;;;6.10;65.30;;;1.08;100.00;94780.13;4974355;28;20026;-51
2024/03/25 04:57:24;;;;;;;13.38;5.15;;;6.10;65.30;;;1.07;100.00;94783.78;4972449;28;20481;-51
2024/03/25 04:59:51;;;;;;;11.60;6.13;;;6.10;65.30;;;1.04;100.00;94784.22;4972431;28;20457;-53
2024/03/25 05:02:16;;;;;;;11.98;5.10;;;6.10;65.30;;;1.03;100.00;94787.06;4971181;28;20622;-51
2024/03/25 05:04:42;;;;;;;14.25;5.97;;;6.10;65.30;;;1.02;100.00;94783.66;4974523;28;20034;-50
2024/03/25 05:07:08;;;;;;;12.43;5.28;;;6.10;65.30;;;1.02;100.00;94781.03;4971237;28;20080;-50
2024/03/25 05:09:34;;;;;;;69.80;7.60;;;6.10;65.30;;;1.02;100.00;94780.22;4975676;28;20022;-50
2024/03/25 05:11:59;;;;;;;11.68;5.30;;;6.10;65.40;;;1.01;100.00;94781.28;4969085;28;20026;-54
2024/03/25 05:14:25;;;;;;;11.90;5.20;;;6.10;65.30;;;1.00;100.00;94780.44;4965983;28;20084;-53
2024/03/25 05:16:52;;;;;;;10.13;5.20;;;6.10;65.30;;;0.98;100.00;94779.88;4974167;28;20033;-53
2024/03/25 05:19:18;;;;;;;11.68;5.07;;;6.10;65.30;;;0.99;100.00;94773.59;4971751;28;20124;-54
2024/03/25 05:21:44;;;;;;;14.43;5.20;;;6.10;65.30;;;0.99;100.00;94775.44;4976103;28;20109;-52
2024/03/25 05:24:11;;;;;;;14.27;5.55;;;6.00;65.20;;;0.95;100.00;94777.72;4974390;28;20065;-54
2024/03/25 05:26:37;;;;;;;10.90;5.43;;;6.00;65.20;;;0.91;100.00;94772.13;4973341;28;20053;-53
2024/03/25 05:29:02;;;;;;;86.93;8.02;;;5.90;65.10;;;0.87;100.00;94773.56;4973867;28;20060;-50
2024/03/25 05:31:28;;;;;;;201.63;12.20;;;5.90;65.20;;;0.83;100.00;94769.81;4974152;28;20053;-50
2024/03/25 05:33:54;;;;;;;17.55;5.70;;;5.90;65.20;;;0.76;100.00;94776.97;4975611;28;20057;-50
2024/03/25 05:36:20;;;;;;;9.57;5.07;;;5.80;65.20;;;0.69;100.00;94774.44;4970254;28;20022;-53
2024/03/25 05:38:46;;;;;;;14.32;5.20;;;5.80;65.20;;;0.63;100.00;94771.91;4964295;28;20029;-52
2024/03/25 05:41:12;;;;;;;11.93;5.00;;;5.80;65.20;;;0.65;100.00;94769.84;4969991;28;20477;-53
2024/03/25 05:43:38;;;;;;;12.18;5.05;;;5.80;65.30;;;0.68;100.00;94777.25;4969821;28;20038;-52
2024/03/25 05:46:04;;;;;;;14.05;4.88;;;5.70;65.30;;;0.66;100.00;94766.22;4967224;28;20034;-53
2024/03/25 05:48:31;;;;;;;7.63;4.88;;;5.70;65.30;;;0.64;100.00;94778.75;4967639;28;20535;-51
2024/03/25 05:51:07;;;;;;;9.27;5.63;;;5.70;65.30;;;0.64;100.00;94779.53;4968992;28;20101;-53
2024/03/25 05:53:33;;;;;;;9.93;4.80;;;5.70;65.50;;;0.64;100.00;94774.28;4970004;28;20090;-53
2024/03/25 05:56:00;;;;;;;9.95;4.97;;;5.60;65.30;;;0.61;100.00;94774.75;4968027;28;20033;-50
2024/03/25 05:58:27;;;;;;;22.98;5.82;;;5.60;65.40;;;0.59;100.00;94765.50;4967746;28;20037;-50
2024/03/25 06:00:54;;;;;;;15.60;5.47;;;5.70;65.40;;;0.56;100.00;94774.59;4968563;28;20022;-50
2024/03/25 06:03:21;;;;;;;14.77;4.90;;;5.60;65.40;;;0.57;100.00;94772.78;4975400;28;20026;-52
2024/03/25 06:05:48;;;;;;;10.23;5.57;;;5.60;65.40;;;0.54;100.00;94774.03;4969260;28;20046;-50
2024/03/25 06:08:21;;;;;;;9.30;4.80;;;5.60;65.40;;;0.49;100.00;94771.25;4965916;28;20034;-50
2024/03/25 06:10:47;;;;;;;12.48;5.53;;;5.60;65.40;;;0.49;100.00;94760.78;4969264;28;20022;-51
2024/03/25 06:13:13;;;;;;;59.78;7.35;;;5.60;65.40;;;0.51;100.00;94757.94;4963572;28;20038;-50
2024/03/25 06:15:38;;;;;;;12.77;5.20;;;5.60;65.40;;;0.51;100.00;94757.94;4967087;28;20031;-51
2024/03/25 06:18:04;;;;;;;13.75;5.60;;;5.60;65.40;;;0.52;100.00;94765.56;4968026;28;20038;-50
2024/03/25 06:20:30;;;;;;;9.70;5.82;;;5.60;65.40;;;0.55;100.00;94761.72;4970251;28;20056;-51
2024/03/25 06:22:56;;;;;;;13.15;5.90;;;5.70;65.60;;;0.61;100.00;94766.06;4969760;28;20037;-54
2024/03/25 06:25:22;;;;;;;12.45;5.90;;;5.70;65.70;;;0.66;100.00;94755.75;4965279;28;20503;-52
2024/03/25 06:27:48;;;;;;;13.77;5.32;;;5.80;65.80;;;0.73;100.00;94753.03;4969314;28;20108;-50
2024/03/25 06:35:44;;;;;;;11.82;5.78;;;6.00;65.90;;;1.02;100.00;94744.31;4970452;28;20087;-52
2024/03/25 06:38:11;;;;;;;14.80;7.05;;;6.10;66.00;;;1.12;100.00;94734.06;4971661;28;20041;-50
2024/03/25 06:40:38;;;;;;;8.52;5.28;;;6.30;66.90;;;1.34;100.00;94734.31;4975139;28;20033;-53
2024/03/25 06:43:05;;;;;;;11.23;5.03;;;6.50;66.30;;;1.56;100.00;94731.91;4972979;28;20505;-50
2024/03/25 06:45:31;;;;;;;9.27;4.53;;;6.90;66.30;;;1.82;100.00;94727.25;4970387;28;20380;-55
2024/03/25 06:47:58;;;;;;;7.93;4.60;;;7.20;66.30;;;2.17;100.00;94723.75;4973094;28;20245;-50
2024/03/25 06:50:24;;;;;;;10.70;5.18;;;7.50;66.10;;;2.59;100.00;94734.00;4972382;28;20022;-50
2024/03/25 06:52:50;;;;;;;9.80;5.13;;;8.00;66.20;;;2.91;100.00;94729.84;4972304;28;20025;-50
2024/03/25 06:55:17;;;;;;;10.30;5.10;;;8.30;66.20;;;3.12;100.00;94738.09;4969821;28;20080;-51
2024/03/25 06:57:43;;;;;;;9.80;5.90;;;8.70;66.10;;;3.42;100.00;94725.41;4973598;28;20108;-50
2024/03/25 07:00:12;;;;;;;13.25;6.00;;;9.20;66.20;;;3.79;100.00;94727.53;4969915;28;20540;-50
2024/03/25 07:02:40;;;;;;;8.90;4.88;;;9.50;66.00;;;4.07;100.00;94721.28;4972784;28;20026;-52
2024/03/25 07:05:06;;;;;;;11.77;4.40;;;10.00;65.90;;;4.23;100.00;94718.84;4975792;28;20060;-54
2024/03/25 07:07:33;;;;;;;8.57;4.47;;;10.30;65.50;;;4.43;100.00;94715.66;4973897;28;20459;-51
2024/03/25 07:10:01;;;;;;;7.35;4.40;;;10.70;65.20;;;4.65;100.00;94716.44;4973225;28;20042;-50
2024/03/25 07:12:26;;;;;;;8.70;4.15;;;11.00;64.80;;;5.07;100.00;94707.84;4972073;28;20026;-51
2024/03/25 07:14:52;;;;;;;6.10;3.67;;;11.40;64.70;;;5.47;100.00;94704.72;4968451;28;20075;-52
2024/03/25 07:17:18;;;;;;;5.80;2.95;;;11.80;64.60;;;5.73;100.00;94703.03;4969527;28;20117;-50
2024/03/25 07:19:45;;;;;;;4.72;2.72;;;12.20;64.20;;;6.14;100.00;94698.03;4975720;28;20106;-51
2024/03/25 07:22:10;;;;;;;5.63;2.55;;;12.60;63.80;;;6.54;100.00;94701.06;4970241;28;20161;-50
2024/03/25 07:24:36;;;;;;;5.63;2.28;;;13.00;63.30;;;6.92;96.67;94695.31;4975695;28;20061;-55
2024/03/25 07:27:02;;;;;;;2.63;1.70;;;13.30;62.40;;;7.25;92.23;94687.94;4970137;28;20034;-54
2024/03/25 07:29:28;;;;;;;3.03;1.52;;;13.60;61.30;;;7.60;88.98;94689.00;4969877;28;20117;-50
2024/03/25 07:31:54;;;;;;;3.85;1.60;;;14.00;60.20;;;7.81;84.83;94689.75;4970972;28;20045;-52
2024/03/25 07:34:20;;;;;;;3.85;1.80;;;14.30;59.20;;;7.87;83.68;94686.03;4972228;28;20022;-51
2024/03/25 07:36:48;;;;;;;3.47;1.67;;;14.50;58.40;;;7.91;81.49;94691.59;4971016;28;20026;-50
2024/03/25 07:39:14;;;;;;;4.22;1.70;;;14.70;57.70;;;8.31;80.04;94683.50;4972059;28;20041;-52
2024/03/25 07:41:40;;;;;;;2.65;1.42;;;15.00;57.20;;;8.60;75.31;94682.09;4972757;28;20018;-52
2024/03/25 07:44:06;;;;;;;3.58;1.92;;;15.20;56.20;;;8.93;71.46;94692.00;4966924;28;20386;-53
2024/03/25 07:46:32;;;;;;;3.55;1.55;;;15.50;55.50;;;9.13;73.11;94685.72;4972068;28;20080;-50
2024/03/25 07:48:58;;;;;;;4.05;1.58;;;15.70;55.00;;;9.47;70.85;94685.75;4970269;28;20038;-50
2024/03/25 07:51:23;;;;;;;2.88;1.35;;;15.90;54.40;;;9.82;66.85;94683.03;4971270;28;20080;-51
2024/03/25 07:53:50;;;;;;;3.35;1.23;;;16.20;53.80;;;9.97;66.37;94672.25;4972093;28;20120;-51
2024/03/25 07:56:16;;;;;;;5.13;1.52;;;16.40;53.10;;;9.39;65.85;94673.03;4970271;28;20454;-52
2024/03/25 07:58:42;;;;;;;4.30;1.42;;;16.60;52.40;;;9.01;64.68;94670.13;4970985;28;20105;-48
2024/03/25 08:01:08;;;;;;;4.90;1.80;;;16.70;51.90;;;9.21;69.10;94669.22;4966015;28;20388;-56
2024/03/25 08:03:34;;;;;;;3.95;1.60;;;16.70;51.10;;;9.07;67.95;94667.47;4971896;28;20030;-50
2024/03/25 08:06:00;;;;;;;5.45;1.75;;;16.60;50.60;;;9.36;67.02;94665.63;4969933;28;20025;-56
2024/03/25 08:08:26;;;;;;;2.75;1.50;;;16.60;50.10;;;9.35;66.95;94663.25;4971811;28;21237;-49
2024/03/25 08:10:52;;;;;;;2.95;1.35;;;16.60;49.80;;;9.15;65.95;94661.53;4971495;28;20089;-50
2024/03/25 08:13:22;;;;;;;2.55;1.38;;;16.60;50.20;;;9.00;67.83;94652.63;4966954;28;20079;-49
2024/03/25 08:15:48;;;;;;;2.45;1.70;;;16.60;49.30;;;9.20;66.64;94648.22;4970780;28;20018;-50
2024/03/25 08:18:14;;;;;;;4.65;1.60;;;16.60;48.80;;;9.53;64.55;94637.81;4970252;28;20297;-49
2024/03/25 08:20:40;;;;;;;3.55;1.85;;;16.60;48.40;;;9.68;63.67;94635.03;4971039;28;20026;-48
2024/03/25 08:23:06;;;;;;;3.20;1.60;;;16.70;48.10;;;9.45;66.68;94644.56;4971236;28;20042;-48
2024/03/25 08:25:32;;;;;;;4.15;1.70;;;16.80;47.90;;;9.58;64.32;94641.22;4971942;28;20025;-55
2024/03/25 08:27:58;;;;;;;5.07;1.73;;;16.80;47.80;;;9.37;63.79;94629.19;4970375;28;20040;-49
2024/03/25 08:30:25;;;;;;;3.92;1.60;;;16.90;47.70;;;9.11;64.58;94632.06;4969488;28;20050;-50
2024/03/25 08:32:51;;;;;;;2.97;1.83;;;16.90;47.50;;;9.34;66.08;94625.25;4971035;28;20030;-48
2024/03/25 08:35:17;;;;;;;3.40;1.52;;;17.00;47.20;;;9.68;63.03;94619.06;4970691;28;20034;-49
2024/03/25 08:37:44;;;;;;;3.90;1.90;;;17.00;47.30;;;9.83;64.98;94618.13;4972845;28;20113;-47
2024/03/25 08:40:10;;;;;;;5.10;1.80;;;17.10;47.10;;;9.50;61.94;94616.06;4970912;28;20148;-49
2024/03/25 08:42:36;;;;;;;2.30;1.55;;;16.90;47.00;;;9.38;64.19;94610.31;4967835;28;20042;-48
2024/03/25 08:45:03;;;;;;;4.00;1.83;;;16.70;46.80;;;9.29;63.77;94617.31;4967062;28;20049;-49
2024/03/25 08:47:29;;;;;;;4.38;2.03;;;16.60;46.60;;;9.20;65.52;94622.44;4970217;28;20417;-48
2024/03/25 08:49:54;;;;;;;4.63;1.92;;;16.50;47.10;;;9.16;63.41;94624.06;4969809;28;20052;-47
2024/03/25 08:52:20;;;;;;;5.05;1.90;;;16.60;47.00;;;9.48;65.24;94618.19;4971028;28;20030;-47
2024/03/25 08:54:46;;;;;;;3.65;2.00;;;16.70;46.70;;;9.36;65.42;94622.31;4983536;23;20077;-54
2024/03/25 08:57:12;;;;;;;7.45;2.15;;;16.50;46.30;;;9.42;68.46;94614.00;4969954;28;20056;-54
2024/03/25 08:59:37;;;;;;;4.55;2.10;;;16.50;46.70;;;9.55;65.00;94609.09;4972496;28;20096;-51
2024/03/25 09:02:03;;;;;;;4.20;2.08;;;16.70;46.60;;;9.98;66.45;94598.53;4968845;28;20034;-56
2024/03/25 09:04:29;;;;;;;4.07;2.20;;;17.00;46.40;;;10.35;64.30;94593.31;4970333;28;20022;-54
2024/03/25 09:06:55;;;;;;;3.05;2.22;;;17.30;46.20;;;10.46;63.69;94593.16;4959206;28;20073;-56
2024/03/25 09:12:06;;;;;;;3.67;1.80;;;17.60;45.40;;;10.13;64.29;94582.41;4965298;28;20105;-53
2024/03/25 09:14:33;;;;;;;2.83;1.80;;;17.80;45.70;;;9.62;65.27;94580.31;4964843;28;20041;-55
2024/03/25 09:16:58;;;;;;;3.70;2.10;;;18.00;44.60;;;10.11;64.15;94579.22;4967986;28;20034;-52
2024/03/25 09:19:24;;;;;;;4.70;2.33;;;18.00;44.10;;;10.55;66.96;94581.56;4967529;28;20026;-56
2024/03/25 09:21:50;;;;;;;5.97;2.58;;;18.20;44.20;;;10.14;63.82;94578.66;4966807;28;20572;-54
2024/03/25 09:24:17;;;;;;;3.80;2.20;;;18.40;43.70;;;10.63;61.81;94586.25;4966114;28;20030;-53
2024/03/25 09:26:43;;;;;;;3.35;2.08;;;18.50;43.50;;;11.06;63.54;94580.81;4964066;28;20034;-54
2024/03/25 09:29:11;;;;;;;5.18;2.30;;;18.60;43.40;;;11.32;61.08;94572.41;4968136;28;20038;-52
2024/03/25 09:31:37;;;;;;;3.47;1.90;;;18.90;43.30;;;11.50;61.43;94568.88;4960871;28;20114;-53
2024/03/25 09:34:03;;;;;;;4.75;2.30;;;19.10;43.00;;;11.57;60.09;94566.59;4970072;28;20029;-57
2024/03/25 09:36:29;;;;;;;3.90;2.00;;;19.20;42.90;;;11.82;58.88;94565.34;4961409;28;20109;-52
2024/03/25 09:38:54;;;;;;;3.90;1.90;;;19.40;42.60;;;11.88;57.26;94563.41;4968407;28;20469;-53
2024/03/25 09:41:22;;;;;;;4.18;2.05;;;19.40;42.10;;;12.09;59.02;94552.28;4969985;28;20461;-53
2024/03/25 09:43:54;;;;;;;5.53;1.83;;;19.60;41.90;;;11.31;57.96;94542.28;4964501;28;20033;-55
2024/03/25 09:46:22;;;;;;;2.90;1.95;;;19.60;41.60;;;10.84;56.51;94554.78;4968988;28;20029;-55
2024/03/25 09:48:52;;;;;;;2.22;1.60;;;19.10;41.00;;;10.85;60.25;94550.25;4966017;28;20036;-57
2024/03/25 09:51:20;;;;;;;4.13;2.25;;;18.80;41.60;;;10.21;58.12;94541.81;4969555;28;20027;-53
2024/03/25 09:53:46;;;;;;;2.67;1.90;;;18.60;41.00;;;10.52;59.81;94542.22;4969181;28;20500;-55
2024/03/25 09:56:15;;;;;;;4.80;2.25;;;18.60;41.00;;;10.51;60.79;94542.50;4965571;28;20109;-53
2024/03/25 09:58:44;;;;;;;4.93;2.75;;;18.40;41.20;;;10.70;61.45;94535.28;4970249;28;20044;-53
2024/03/25 10:01:10;;;;;;;3.75;2.35;;;18.40;41.30;;;10.01;62.35;94531.47;4968459;28;20027;-57
2024/03/25 10:03:36;;;;;;;4.03;2.00;;;18.40;41.20;;;10.30;61.08;94528.69;4969330;28;20544;-56
2024/03/25 10:06:03;;;;;;;3.90;2.60;;;18.40;41.40;;;10.95;61.37;94527.97;4967931;28;20029;-54
2024/03/25 10:08:30;;;;;;;4.90;2.13;;;18.60;41.40;;;10.92;56.58;94528.56;4969760;28;20030;-57
2024/03/25 10:10:56;;;;;;;3.58;2.20;;;18.90;41.00;;;11.20;55.32;94516.09;4972339;28;20026;-57
2024/03/25 10:13:23;;;;;;;3.83;2.30;;;19.20;40.40;;;11.47;58.71;94518.78;4970622;28;20169;-56
2024/03/25 10:15:49;;;;;;;4.63;2.13;;;19.60;40.20;;;11.45;55.07;94504.97;4970055;28;20157;-56
2024/03/25 10:18:17;;;;;;;4.35;1.90;;;19.90;39.50;;;11.54;56.43;94500.53;4971797;28;20493;-55
2024/03/25 10:20:56;;;;;;;3.22;2.10;;;20.10;38.90;;;11.37;59.22;94497.63;4970754;28;20026;-55
2024/03/25 10:23:26;;;;;;;5.72;2.47;;;20.30;38.50;;;11.64;57.62;94488.84;4969844;28;20026;-56
2024/03/25 10:25:55;;;;;;;7.05;2.60;;;20.40;38.20;;;11.96;56.45;94490.63;4971682;28;20117;-56
2024/03/25 10:28:21;;;;;;;4.72;2.05;;;20.70;38.30;;;12.14;57.21;94480.91;4973379;28;20030;-56